Time;durP1;ratioP1;P1;durP2;ratioP2;P2;SDS_P1;SDS_P2;PMS_P1;PMS_P2;Temp;Humidity;BMP_temperature;BMP_pressure;BME280_temperature;BME280_humidity;BME280_pressure;Samples;Min_cycle;Max_cycle;Signal;HPM_P1;HPM_P2
2021/09/11 00:00:17;;;;;;;21.50;19.67;;;18.90;99.90;;;;;;5029683;28;20177;-69
2021/09/11 00:02:44;;;;;;;21.40;19.20;;;18.90;99.90;;;;;;5030817;28;20233;-70
2021/09/11 00:05:10;;;;;;;21.93;19.43;;;18.90;99.90;;;;;;5030762;28;20499;-69
2021/09/11 00:07:36;;;;;;;19.97;18.07;;;18.90;99.90;;;;;;5030396;28;20481;-70
2021/09/11 00:10:01;;;;;;;20.30;18.30;;;18.90;99.90;;;;;;5030713;28;20407;-68
2021/09/11 00:12:27;;;;;;;20.20;18.37;;;18.90;99.90;;;;;;5030512;28;20458;-68
2021/09/11 00:14:52;;;;;;;19.53;17.77;;;18.90;99.90;;;;;;5030598;28;20235;-69
2021/09/11 00:17:18;;;;;;;20.50;17.50;;;18.90;99.90;;;;;;5030619;28;20235;-68
2021/09/11 00:19:43;;;;;;;19.03;17.17;;;18.80;99.90;;;;;;5030568;28;20609;-68
2021/09/11 00:22:08;;;;;;;19.30;17.20;;;18.80;99.90;;;;;;5030400;28;20176;-67
2021/09/11 00:24:34;;;;;;;20.50;18.50;;;18.80;99.90;;;;;;5029141;28;20308;-68
2021/09/11 00:27:00;;;;;;;20.47;18.40;;;18.80;99.90;;;;;;5031491;28;20279;-68
2021/09/11 00:29:25;;;;;;;19.00;17.17;;;18.80;99.90;;;;;;5034082;28;20180;-70
2021/09/11 00:31:51;;;;;;;19.80;17.93;;;18.80;99.90;;;;;;5033995;28;20692;-69
2021/09/11 00:34:16;;;;;;;17.73;16.00;;;18.80;99.90;;;;;;5034012;28;20198;-67
2021/09/11 00:36:42;;;;;;;20.80;18.90;;;18.70;99.90;;;;;;5033843;28;20187;-71
2021/09/11 00:39:07;;;;;;;19.27;17.47;;;18.80;99.90;;;;;;5034060;28;20179;-70
2021/09/11 00:41:34;;;;;;;17.80;16.20;;;18.80;99.90;;;;;;5033785;28;20258;-68
2021/09/11 00:44:00;;;;;;;17.67;15.87;;;18.80;99.90;;;;;;5033829;28;20203;-69
2021/09/11 00:46:25;;;;;;;20.53;18.50;;;18.80;99.90;;;;;;5034046;28;20407;-70
2021/09/11 00:48:51;;;;;;;19.17;17.37;;;18.70;99.90;;;;;;5033640;28;20465;-69
2021/09/11 00:51:17;;;;;;;19.07;17.27;;;18.70;99.90;;;;;;5033626;28;20243;-68
2021/09/11 00:53:43;;;;;;;19.70;17.07;;;18.70;99.90;;;;;;5034058;28;20248;-69
2021/09/11 00:56:10;;;;;;;18.80;17.10;;;18.70;99.90;;;;;;5034186;28;20200;-70
2021/09/11 00:58:36;;;;;;;20.13;17.93;;;18.70;99.90;;;;;;5033454;28;20422;-68
2021/09/11 01:01:02;;;;;;;19.03;17.03;;;18.70;99.90;;;;;;5033475;28;20403;-68
2021/09/11 01:03:28;;;;;;;19.00;17.17;;;18.60;99.90;;;;;;5033625;28;20202;-68
2021/09/11 01:05:53;;;;;;;19.93;17.93;;;18.60;99.90;;;;;;5033509;28;20758;-68
2021/09/11 01:08:19;;;;;;;18.93;17.17;;;18.60;99.90;;;;;;5033436;28;20218;-68
2021/09/11 01:10:44;;;;;;;19.33;17.60;;;18.60;99.90;;;;;;5032314;28;20255;-68
2021/09/11 01:13:10;;;;;;;19.27;17.50;;;18.60;99.90;;;;;;5033389;28;20222;-68
2021/09/11 01:15:38;;;;;;;17.87;16.17;;;18.60;99.90;;;;;;5033323;28;20212;-68
2021/09/11 01:18:05;;;;;;;17.43;15.73;;;18.60;99.90;;;;;;5033238;28;20846;-68
2021/09/11 01:20:32;;;;;;;22.00;20.00;;;18.50;99.90;;;;;;5033131;28;20416;-69
2021/09/11 01:22:57;;;;;;;20.83;18.70;;;18.50;99.90;;;;;;5032917;28;21040;-68
2021/09/11 01:25:23;;;;;;;18.90;17.20;;;18.50;99.90;;;;;;5033155;28;20498;-68
2021/09/11 01:27:49;;;;;;;19.73;17.77;;;18.50;99.90;;;;;;5032788;28;20560;-69
2021/09/11 01:30:17;;;;;;;21.00;18.93;;;18.50;99.90;;;;;;5032960;28;20420;-70
2021/09/11 01:32:43;;;;;;;19.90;18.00;;;18.40;99.90;;;;;;5032975;28;20452;-68
2021/09/11 01:35:10;;;;;;;21.50;19.50;;;18.40;99.90;;;;;;5033041;28;20424;-68
2021/09/11 01:37:35;;;;;;;21.20;19.13;;;18.40;99.90;;;;;;5032695;28;20410;-69
2021/09/11 01:40:02;;;;;;;22.07;19.80;;;18.40;99.90;;;;;;5032838;28;20415;-68
2021/09/11 01:42:28;;;;;;;22.17;19.87;;;18.40;99.90;;;;;;5032747;28;20223;-68
2021/09/11 01:45:00;;;;;;;21.83;19.60;;;18.40;99.90;;;;;;5032714;28;20795;-68
2021/09/11 01:47:26;;;;;;;20.67;18.73;;;18.40;99.90;;;;;;5032610;28;20498;-68
2021/09/11 01:49:52;;;;;;;21.13;19.33;;;18.30;99.90;;;;;;5033203;28;20450;-69
2021/09/11 01:52:19;;;;;;;21.70;19.63;;;18.30;99.90;;;;;;5031280;28;20186;-68
2021/09/11 01:54:44;;;;;;;21.53;19.27;;;18.30;99.90;;;;;;5032416;28;20492;-68
2021/09/11 01:57:11;;;;;;;21.93;19.83;;;18.30;99.90;;;;;;5032280;28;20403;-69
2021/09/11 01:59:37;;;;;;;21.87;19.70;;;18.30;99.90;;;;;;5032421;28;20171;-68
2021/09/11 02:02:04;;;;;;;20.47;18.57;;;18.30;99.90;;;;;;5032333;28;20410;-68
2021/09/11 02:04:31;;;;;;;19.63;17.93;;;18.30;99.90;;;;;;5032368;28;20455;-69
2021/09/11 02:06:57;;;;;;;20.00;17.90;;;18.30;99.90;;;;;;5032243;28;20453;-69
2021/09/11 02:09:23;;;;;;;21.93;19.63;;;18.20;99.90;;;;;;5032241;28;20406;-69
2021/09/11 02:11:48;;;;;;;20.70;18.80;;;18.20;99.90;;;;;;5032171;28;20405;-70
2021/09/11 02:14:14;;;;;;;18.87;16.97;;;18.20;99.90;;;;;;5032389;28;20187;-69
2021/09/11 02:16:39;;;;;;;20.00;18.10;;;18.20;99.90;;;;;;5032321;28;20174;-68
2021/09/11 02:19:05;;;;;;;19.97;17.93;;;18.20;99.90;;;;;;5031974;28;20195;-69
2021/09/11 02:21:30;;;;;;;22.83;20.53;;;18.20;99.90;;;;;;5031950;28;20196;-69
2021/09/11 02:23:56;;;;;;;21.70;19.60;;;18.20;99.90;;;;;;5031941;28;20195;-69
2021/09/11 02:26:21;;;;;;;21.03;18.87;;;18.20;99.90;;;;;;5031936;28;20719;-68
2021/09/11 02:28:47;;;;;;;20.40;18.40;;;18.20;99.90;;;;;;5031652;28;20215;-69
2021/09/11 02:31:12;;;;;;;20.80;18.60;;;18.20;99.90;;;;;;5032002;28;20170;-69
2021/09/11 02:33:38;;;;;;;20.77;18.77;;;18.10;99.90;;;;;;5031769;28;20237;-69
2021/09/11 02:36:04;;;;;;;21.57;19.47;;;18.10;99.90;;;;;;5031949;28;20168;-69
2021/09/11 02:38:30;;;;;;;20.10;18.10;;;18.10;99.90;;;;;;5031607;28;20647;-69
2021/09/11 02:40:55;;;;;;;21.80;19.70;;;18.10;99.90;;;;;;5031989;28;20450;-69
2021/09/11 02:43:20;;;;;;;20.70;18.70;;;18.10;99.90;;;;;;5031667;28;20569;-69
2021/09/11 02:45:46;;;;;;;21.13;19.23;;;18.00;99.90;;;;;;5031848;28;20195;-69
2021/09/11 02:48:11;;;;;;;22.20;19.90;;;18.00;99.90;;;;;;5031750;28;20254;-68
2021/09/11 02:50:37;;;;;;;22.30;20.00;;;18.00;99.90;;;;;;5031164;28;20268;-68
2021/09/11 02:53:02;;;;;;;20.73;18.60;;;18.00;99.90;;;;;;5031762;28;20701;-68
2021/09/11 02:55:28;;;;;;;23.90;21.50;;;18.00;99.90;;;;;;5031304;28;20187;-69
2021/09/11 02:57:53;;;;;;;22.23;20.03;;;18.00;99.90;;;;;;5031257;28;20190;-68
2021/09/11 03:00:19;;;;;;;23.57;21.20;;;18.00;99.90;;;;;;5031606;28;20196;-68
2021/09/11 03:02:45;;;;;;;21.83;19.53;;;17.90;99.90;;;;;;5031522;28;20196;-69
2021/09/11 03:05:11;;;;;;;23.33;21.03;;;17.90;99.90;;;;;;5031460;28;20284;-68
2021/09/11 03:07:37;;;;;;;24.03;20.20;;;18.00;99.90;;;;;;5031261;28;20881;-68
2021/09/11 03:10:03;;;;;;;24.47;21.87;;;17.90;99.90;;;;;;5031340;28;20190;-68
2021/09/11 03:12:28;;;;;;;22.67;20.40;;;17.90;99.90;;;;;;5031163;28;20208;-68
2021/09/11 03:14:53;;;;;;;22.07;19.97;;;17.90;99.90;;;;;;5031068;28;20191;-68
2021/09/11 03:17:19;;;;;;;23.40;21.07;;;17.90;99.90;;;;;;5031185;28;20703;-68
2021/09/11 03:19:44;;;;;;;23.70;21.10;;;17.90;99.90;;;;;;5031217;28;20539;-68
2021/09/11 03:22:10;;;;;;;23.13;20.83;;;17.80;99.90;;;;;;5031470;28;20245;-68
2021/09/11 03:24:35;;;;;;;23.43;21.27;;;17.80;99.90;;;;;;5030996;28;20298;-68
2021/09/11 03:27:01;;;;;;;21.87;19.77;;;17.80;99.90;;;;;;5030793;28;20193;-68
2021/09/11 03:29:26;;;;;;;23.63;21.23;;;17.80;99.90;;;;;;5031099;28;20242;-68
2021/09/11 03:31:52;;;;;;;23.17;20.83;;;17.80;99.90;;;;;;5030911;28;20578;-68
2021/09/11 03:34:17;;;;;;;28.90;22.23;;;17.80;99.90;;;;;;5030866;28;20202;-68
2021/09/11 03:36:43;;;;;;;23.27;21.07;;;17.80;99.90;;;;;;5030910;28;20174;-69
2021/09/11 03:39:08;;;;;;;24.43;21.93;;;17.80;99.90;;;;;;5030827;28;20191;-69
2021/09/11 03:41:33;;;;;;;24.20;20.37;;;17.80;99.90;;;;;;5030783;28;20250;-69
2021/09/11 03:43:59;;;;;;;23.30;20.90;;;17.80;99.90;;;;;;5031000;28;20183;-68
2021/09/11 03:46:24;;;;;;;22.27;19.97;;;17.80;99.90;;;;;;5030942;28;20200;-68
2021/09/11 03:48:50;;;;;;;23.77;21.50;;;17.80;99.90;;;;;;5030730;28;20663;-68
2021/09/11 03:51:16;;;;;;;23.67;21.40;;;17.80;99.90;;;;;;5030767;28;20532;-68
2021/09/11 03:53:41;;;;;;;21.90;19.70;;;17.80;99.90;;;;;;5030545;28;20213;-68
2021/09/11 03:56:06;;;;;;;24.30;21.87;;;17.70;99.90;;;;;;5030735;28;20575;-68
2021/09/11 03:58:33;;;;;;;23.60;21.10;;;17.70;99.90;;;;;;5030882;28;20178;-68
2021/09/11 04:01:01;;;;;;;26.03;21.53;;;17.70;99.90;;;;;;5030772;28;20195;-69
2021/09/11 04:03:26;;;;;;;24.47;22.17;;;17.70;99.90;;;;;;5034340;28;20440;-69
2021/09/11 04:05:52;;;;;;;24.93;21.07;;;17.70;99.90;;;;;;5035071;28;20410;-69
2021/09/11 04:08:17;;;;;;;22.20;19.67;;;17.70;99.90;;;;;;5034773;28;20686;-68
2021/09/11 04:10:43;;;;;;;22.73;20.40;;;17.60;99.90;;;;;;5034538;28;20203;-68
2021/09/11 04:13:08;;;;;;;24.50;22.20;;;17.60;99.90;;;;;;5033151;28;20681;-68
2021/09/11 04:15:34;;;;;;;24.57;22.07;;;17.60;99.90;;;;;;5034414;28;20167;-68
2021/09/11 04:17:59;;;;;;;25.67;22.10;;;17.60;99.90;;;;;;5034561;28;20200;-69
2021/09/11 04:20:25;;;;;;;21.57;19.27;;;17.60;99.90;;;;;;5034428;28;20220;-68
2021/09/11 04:22:50;;;;;;;23.80;21.30;;;17.60;99.90;;;;;;5034153;28;20172;-68
2021/09/11 04:25:16;;;;;;;25.20;22.33;;;17.60;99.90;;;;;;5034158;28;20392;-68
2021/09/11 04:27:41;;;;;;;24.70;22.20;;;17.70;99.90;;;;;;5034018;28;20217;-68
2021/09/11 04:30:07;;;;;;;23.73;21.33;;;17.70;99.90;;;;;;5034120;28;20512;-68
2021/09/11 04:32:32;;;;;;;25.43;22.30;;;17.70;99.90;;;;;;5034206;28;20179;-68
2021/09/11 04:34:58;;;;;;;23.87;21.10;;;17.70;99.90;;;;;;5032674;28;20573;-69
2021/09/11 04:37:23;;;;;;;25.37;22.77;;;17.80;99.90;;;;;;5033892;28;20174;-69
2021/09/11 04:39:49;;;;;;;24.03;21.73;;;17.80;99.90;;;;;;5033945;28;20481;-69
2021/09/11 04:42:14;;;;;;;22.87;20.57;;;17.80;99.90;;;;;;5033930;28;20184;-68
2021/09/11 04:44:40;;;;;;;24.67;22.20;;;17.80;99.90;;;;;;5033832;28;20230;-69
2021/09/11 04:47:05;;;;;;;23.30;20.80;;;17.90;99.90;;;;;;5033951;28;20576;-69
2021/09/11 04:49:31;;;;;;;23.63;21.30;;;17.90;99.90;;;;;;5033969;28;20172;-69
2021/09/11 04:51:56;;;;;;;23.67;20.70;;;17.90;99.90;;;;;;5033821;28;20474;-69
2021/09/11 04:54:21;;;;;;;22.20;20.20;;;17.90;99.90;;;;;;5033761;28;20221;-69
2021/09/11 04:56:47;;;;;;;22.07;19.87;;;18.00;99.90;;;;;;5033700;28;20179;-68
2021/09/11 04:59:12;;;;;;;23.47;21.00;;;18.00;99.90;;;;;;5033849;28;20184;-69
2021/09/11 05:01:38;;;;;;;22.87;20.63;;;18.00;99.90;;;;;;5033593;28;20172;-68
2021/09/11 05:04:04;;;;;;;21.80;19.50;;;18.10;99.90;;;;;;5033628;28;20203;-69
2021/09/11 05:06:30;;;;;;;22.33;20.33;;;18.10;99.90;;;;;;5033616;28;20173;-69
2021/09/11 05:08:55;;;;;;;21.57;19.47;;;18.10;99.90;;;;;;5033200;28;21039;-69
2021/09/11 05:11:21;;;;;;;19.60;17.67;;;18.20;99.90;;;;;;5033331;28;20552;-68
2021/09/11 05:13:46;;;;;;;20.60;18.73;;;18.20;99.90;;;;;;5033030;28;20205;-68
2021/09/11 05:16:12;;;;;;;21.13;19.03;;;18.30;99.90;;;;;;5033297;28;20640;-68
2021/09/11 05:18:37;;;;;;;19.80;17.90;;;18.30;99.90;;;;;;5033210;28;20181;-69
2021/09/11 05:21:06;;;;;;;20.20;18.20;;;18.40;99.90;;;;;;5033198;28;20181;-69
2021/09/11 05:23:33;;;;;;;19.03;17.17;;;18.40;99.90;;;;;;5034106;28;20204;-69
2021/09/11 05:26:00;;;;;;;20.40;18.13;;;18.50;99.90;;;;;;5034075;28;20404;-68
2021/09/11 05:28:26;;;;;;;19.07;17.13;;;18.60;99.90;;;;;;5033055;28;20774;-68
2021/09/11 05:30:51;;;;;;;17.57;15.93;;;18.70;99.90;;;;;;5033176;28;20414;-67
2021/09/11 05:33:16;;;;;;;18.47;16.67;;;18.80;99.90;;;;;;5032896;28;20266;-69
2021/09/11 05:35:42;;;;;;;20.80;18.50;;;18.80;99.90;;;;;;5033112;28;20260;-68
2021/09/11 05:38:08;;;;;;;18.53;16.63;;;18.80;99.90;;;;;;5032813;28;20174;-68
2021/09/11 05:40:33;;;;;;;17.47;15.73;;;18.80;99.90;;;;;;5032903;28;20211;-68
2021/09/11 05:42:58;;;;;;;17.93;16.43;;;19.00;99.90;;;;;;5032647;28;20181;-69
2021/09/11 05:45:24;;;;;;;16.33;14.83;;;19.00;99.90;;;;;;5032829;28;20178;-68
2021/09/11 05:47:49;;;;;;;17.50;15.80;;;19.10;99.90;;;;;;5032625;28;20200;-68
2021/09/11 05:50:15;;;;;;;17.50;15.90;;;19.10;99.90;;;;;;5032622;28;20559;-69
2021/09/11 05:52:40;;;;;;;17.17;15.53;;;19.20;99.90;;;;;;5032415;28;20167;-68
2021/09/11 05:55:06;;;;;;;15.20;13.70;;;19.20;99.90;;;;;;5032495;28;20218;-67
2021/09/11 05:57:31;;;;;;;17.23;15.43;;;19.30;99.90;;;;;;5032521;28;20175;-68
2021/09/11 05:59:59;;;;;;;17.33;15.10;;;19.40;99.90;;;;;;5032540;28;20183;-69
2021/09/11 06:02:25;;;;;;;15.23;13.80;;;19.40;99.90;;;;;;5032476;28;20554;-68
2021/09/11 06:04:50;;;;;;;15.57;14.03;;;19.30;99.90;;;;;;5032386;28;20438;-68
2021/09/11 06:07:16;;;;;;;15.60;14.10;;;19.30;99.90;;;;;;5032112;28;20206;-68
2021/09/11 06:09:41;;;;;;;17.10;15.37;;;19.20;99.90;;;;;;5032248;28;20247;-69
2021/09/11 06:12:10;;;;;;;17.63;15.87;;;19.20;99.90;;;;;;5032270;28;20190;-67
2021/09/11 06:14:36;;;;;;;18.07;14.30;;;19.30;99.90;;;;;;5032185;28;20190;-67
2021/09/11 06:17:02;;;;;;;16.03;14.43;;;19.30;99.90;;;;;;5032141;28;20849;-68
2021/09/11 06:19:27;;;;;;;17.70;15.97;;;19.20;99.90;;;;;;5032023;28;20493;-69
2021/09/11 06:21:53;;;;;;;16.30;14.80;;;19.10;99.90;;;;;;5031956;28;20222;-68
2021/09/11 06:24:18;;;;;;;15.43;13.93;;;19.10;99.90;;;;;;5031542;28;20506;-68
2021/09/11 06:26:44;;;;;;;16.40;14.90;;;19.20;99.90;;;;;;5031866;28;20170;-69
2021/09/11 06:29:09;;;;;;;16.07;14.50;;;19.20;99.90;;;;;;5032340;28;20623;-67
2021/09/11 06:31:35;;;;;;;16.30;14.70;;;19.30;99.90;;;;;;5031807;28;20178;-68
2021/09/11 06:34:01;;;;;;;15.40;13.87;;;19.30;99.90;;;;;;5031732;28;20191;-68
2021/09/11 06:36:27;;;;;;;15.53;14.13;;;19.40;99.90;;;;;;5031668;28;20232;-68
2021/09/11 06:38:52;;;;;;;15.63;13.90;;;19.30;99.90;;;;;;5031643;28;20422;-68
2021/09/11 06:41:18;;;;;;;16.10;14.50;;;19.40;99.90;;;;;;5031714;28;20176;-67
2021/09/11 06:43:43;;;;;;;16.07;14.40;;;19.60;99.90;;;;;;5028949;28;20460;-68
2021/09/11 06:46:09;;;;;;;16.60;14.97;;;19.60;99.90;;;;;;5031679;28;20174;-67
2021/09/11 06:48:35;;;;;;;15.27;13.77;;;19.60;99.90;;;;;;5013837;28;20294;-69
2021/09/11 06:51:00;;;;;;;15.73;14.23;;;19.60;99.90;;;;;;5031636;28;20218;-69
2021/09/11 06:53:26;;;;;;;14.57;13.27;;;19.90;99.90;;;;;;5031824;28;20201;-68
2021/09/11 06:55:51;;;;;;;14.67;13.37;;;20.00;99.90;;;;;;5031969;28;20647;-69
2021/09/11 06:58:17;;;;;;;14.40;13.00;;;19.90;99.90;;;;;;5014365;28;20183;-69
2021/09/11 07:00:42;;;;;;;14.77;13.33;;;20.30;99.90;;;;;;5031886;28;20655;-68
2021/09/11 07:03:08;;;;;;;13.10;11.63;;;20.70;99.90;;;;;;5032181;28;20244;-67
2021/09/11 07:05:34;;;;;;;12.97;11.67;;;20.90;99.90;;;;;;5032110;28;20172;-70
2021/09/11 07:07:59;;;;;;;12.60;11.17;;;20.90;99.90;;;;;;5032017;28;20231;-69
2021/09/11 07:10:24;;;;;;;11.30;10.30;;;21.10;99.90;;;;;;5032441;28;20169;-69
2021/09/11 07:12:55;;;;;;;12.17;10.93;;;21.00;99.90;;;;;;5032153;28;20629;-69
2021/09/11 07:15:21;;;;;;;13.67;12.03;;;20.80;99.90;;;;;;4998355;28;20174;-68
2021/09/11 07:17:46;;;;;;;12.87;11.70;;;20.80;99.90;;;;;;5014115;28;20427;-69
2021/09/11 07:20:12;;;;;;;12.00;10.87;;;20.90;99.90;;;;;;5031705;28;20172;-69
2021/09/11 07:22:40;;;;;;;12.43;11.17;;;20.90;99.90;;;;;;5031930;28;20232;-69
2021/09/11 07:25:06;;;;;;;11.43;10.23;;;21.10;99.90;;;;;;5031776;28;20202;-70
2021/09/11 07:27:32;;;;;;;13.20;12.00;;;21.20;99.90;;;;;;5012536;28;20468;-69
2021/09/11 07:30:00;;;;;;;11.80;10.80;;;21.10;99.90;;;;;;5031665;28;20404;-69
2021/09/11 07:32:26;;;;;;;15.73;11.20;;;21.10;99.90;;;;;;5031672;28;20167;-69
2021/09/11 07:34:52;;;;;;;11.93;10.53;;;21.10;99.90;;;;;;5031398;28;20930;-69
2021/09/11 07:37:17;;;;;;;11.90;10.70;;;21.50;99.90;;;;;;5017403;28;20424;-69
2021/09/11 07:39:42;;;;;;;12.17;10.97;;;21.50;99.90;;;;;;5035787;28;20165;-70
2021/09/11 07:42:16;;;;;;;13.70;12.50;;;21.40;99.90;;;;;;5035557;28;20254;-70
2021/09/11 07:44:42;;;;;;;11.57;10.47;;;21.50;99.90;;;;;;5035593;28;20190;-69
2021/09/11 07:47:10;;;;;;;11.30;10.10;;;21.60;99.90;;;;;;5035396;28;20816;-70
2021/09/11 07:49:36;;;;;;;12.37;11.10;;;21.80;99.90;;;;;;5035340;28;20590;-69
2021/09/11 07:52:02;;;;;;;15.00;11.17;;;21.60;99.90;;;;;;5035639;28;20406;-69
2021/09/11 07:54:27;;;;;;;13.77;12.40;;;21.30;99.90;;;;;;5035408;28;20692;-68
2021/09/11 07:56:53;;;;;;;12.07;10.73;;;21.10;99.90;;;;;;5034986;28;20229;-69
2021/09/11 07:59:18;;;;;;;14.20;12.27;;;21.10;99.90;;;;;;5034950;28;20253;-69
2021/09/11 08:01:44;;;;;;;12.60;11.40;;;21.30;99.90;;;;;;5034897;28;20171;-69
2021/09/11 08:04:09;;;;;;;13.77;11.20;;;21.10;99.90;;;;;;5034819;28;20273;-68
2021/09/11 08:06:35;;;;;;;13.80;12.40;;;21.20;99.90;;;;;;5034839;28;20576;-70
2021/09/11 08:09:00;;;;;;;13.30;12.10;;;21.20;99.90;;;;;;5034770;28;20285;-68
2021/09/11 08:11:31;;;;;;;12.60;11.50;;;21.40;99.90;;;;;;5034733;28;20169;-68
2021/09/11 08:13:56;;;;;;;14.77;13.30;;;21.30;99.90;;;;;;5034801;28;20200;-69
2021/09/11 08:16:22;;;;;;;14.30;12.90;;;21.40;99.90;;;;;;5034604;28;20410;-69
2021/09/11 08:18:50;;;;;;;13.20;12.00;;;21.40;99.90;;;;;;5034616;28;20313;-68
2021/09/11 08:21:16;;;;;;;12.20;10.97;;;21.50;99.90;;;;;;5034836;28;20179;-68
2021/09/11 08:23:42;;;;;;;12.03;10.80;;;21.30;99.90;;;;;;5034579;28;20780;-69
2021/09/11 08:26:08;;;;;;;13.77;12.37;;;21.30;99.90;;;;;;5034449;28;20175;-69
2021/09/11 08:28:34;;;;;;;14.83;12.20;;;21.50;99.90;;;;;;5034234;28;20206;-69
2021/09/11 08:30:59;;;;;;;12.47;11.27;;;21.60;99.90;;;;;;5034145;28;20772;-70
2021/09/11 08:33:25;;;;;;;13.67;12.37;;;21.60;99.90;;;;;;5034275;28;20674;-69
2021/09/11 08:35:50;;;;;;;13.10;11.70;;;21.60;99.90;;;;;;5034263;28;20642;-69
2021/09/11 08:38:16;;;;;;;12.43;10.87;;;21.90;99.90;;;;;;5034271;28;20553;-70
2021/09/11 08:40:41;;;;;;;12.90;11.77;;;21.40;99.90;;;;;;5034383;28;20308;-69
2021/09/11 08:43:07;;;;;;;13.03;11.83;;;21.30;99.90;;;;;;5034058;28;20732;-69
2021/09/11 08:45:33;;;;;;;13.07;11.77;;;21.50;99.90;;;;;;5034063;28;20173;-69
2021/09/11 08:48:02;;;;;;;12.37;11.33;;;21.50;99.90;;;;;;5033086;28;20201;-69
2021/09/11 08:50:29;;;;;;;12.47;11.27;;;21.70;99.90;;;;;;5034291;28;20169;-69
2021/09/11 08:52:54;;;;;;;11.20;10.23;;;21.70;99.90;;;;;;5034054;28;20412;-70
2021/09/11 08:55:20;;;;;;;10.23;9.37;;;22.20;99.90;;;;;;5034084;28;20425;-68
2021/09/11 08:58:09;;;;;;;10.30;9.30;;;22.30;99.90;;;;;;5034318;28;20169;-68
2021/09/11 09:00:44;;;;;;;9.80;8.90;;;22.30;99.90;;;;;;5033866;28;20232;-68
2021/09/11 09:03:43;;;;;;;11.23;10.17;;;22.20;99.90;;;;;;5033864;28;20432;-69
2021/09/11 09:06:40;;;;;;;10.07;9.23;;;21.70;99.90;;;;;;5001155;28;20472;-70
2021/09/11 09:09:10;;;;;;;8.90;8.20;;;22.30;99.90;;;;;;5033153;28;20516;-68
2021/09/11 09:11:42;;;;;;;9.90;9.00;;;22.60;99.90;;;;;;5033779;28;20486;-68
2021/09/11 09:14:11;;;;;;;9.23;8.37;;;22.70;99.90;;;;;;5033736;28;20415;-68
2021/09/11 09:17:02;;;;;;;8.93;8.10;;;22.70;99.90;;;;;;5033408;28;20969;-68
2021/09/11 09:19:28;;;;;;;8.80;8.10;;;22.30;99.90;;;;;;5017599;28;20420;-69
2021/09/11 09:21:59;;;;;;;8.67;7.97;;;23.00;99.90;;;;;;5033255;28;20496;-70
2021/09/11 09:24:35;;;;;;;7.93;7.23;;;23.40;99.90;;;;;;5033676;28;20475;-69
2021/09/11 09:27:04;;;;;;;7.60;6.90;;;23.20;99.90;;;;;;5033098;28;20474;-70
2021/09/11 09:29:30;;;;;;;8.20;7.50;;;23.20;99.90;;;;;;5033230;28;20421;-69
2021/09/11 09:32:02;;;;;;;8.67;7.50;;;23.50;99.90;;;;;;5033140;28;20937;-69
2021/09/11 09:34:33;;;;;;;7.90;7.20;;;22.80;99.90;;;;;;5033064;28;20190;-69
2021/09/11 09:37:02;;;;;;;8.00;7.20;;;22.70;99.90;;;;;;5032965;28;20409;-69
2021/09/11 09:39:39;;;;;;;8.03;7.23;;;22.90;99.90;;;;;;5033067;28;20511;-70
2021/09/11 09:42:04;;;;;;;8.20;7.60;;;22.80;99.90;;;;;;5032810;28;20482;-67
2021/09/11 09:44:43;;;;;;;8.73;8.03;;;23.20;99.90;;;;;;5033271;28;20495;-69
2021/09/11 09:47:12;;;;;;;7.67;6.97;;;23.10;99.90;;;;;;5033059;28;20205;-68
2021/09/11 09:49:38;;;;;;;8.27;7.47;;;23.30;99.90;;;;;;5032853;28;20400;-68
2021/09/11 09:52:04;;;;;;;11.30;8.10;;;23.80;99.90;;;;;;5032932;28;20433;-69
2021/09/11 09:54:31;;;;;;;7.80;7.10;;;23.00;99.90;;;;;;5032477;28;20351;-68
2021/09/11 09:56:57;;;;;;;7.40;6.70;;;22.80;99.90;;;;;;5032745;28;20419;-70
2021/09/11 09:59:38;;;;;;;7.47;6.77;;;22.90;99.90;;;;;;5031377;28;20412;-69
2021/09/11 10:02:03;;;;;;;6.70;6.10;;;23.50;99.90;;;;;;4998829;28;20175;-67
2021/09/11 10:04:33;;;;;;;8.10;6.60;;;23.50;99.90;;;;;;5032444;28;20526;-68
2021/09/11 10:07:04;;;;;;;6.53;6.03;;;23.50;99.90;;;;;;5032060;28;20282;-68
2021/09/11 10:09:30;;;;;;;7.20;6.60;;;23.90;99.90;;;;;;5032465;28;20426;-68
2021/09/11 10:11:59;;;;;;;7.30;6.70;;;24.20;99.90;;;;;;5032628;28;20406;-68
2021/09/11 10:14:32;;;;;;;7.40;6.70;;;24.10;99.90;;;;;;5032642;28;20518;-68
2021/09/11 10:16:59;;;;;;;6.30;5.70;;;23.90;99.90;;;;;;5032358;28;20491;-68
2021/09/11 10:19:26;;;;;;;6.67;6.10;;;24.20;99.90;;;;;;5032190;28;20843;-67
2021/09/11 10:22:22;;;;;;;6.03;5.50;;;23.70;99.90;;;;;;5032229;28;20425;-67
2021/09/11 10:24:59;;;;;;;8.10;7.50;;;23.40;99.90;;;;;;5032122;28;20412;-69
2021/09/11 10:27:36;;;;;;;8.20;7.50;;;23.50;99.90;;;;;;5013803;28;20829;-69
2021/09/11 10:30:05;;;;;;;9.57;8.87;;;23.50;99.90;;;;;;5032072;28;20716;-68
2021/09/11 10:32:38;;;;;;;9.67;8.87;;;23.60;99.90;;;;;;5014290;28;20781;-68
2021/09/11 10:35:20;;;;;;;10.07;9.30;;;23.60;99.90;;;;;;5031973;28;20779;-67
2021/09/11 10:37:59;;;;;;;10.40;9.50;;;23.00;99.90;;;;;;5031897;28;20421;-68
2021/09/11 10:40:29;;;;;;;11.40;10.40;;;23.10;99.90;;;;;;5014218;28;20822;-71
2021/09/11 10:43:04;;;;;;;10.47;9.57;;;23.30;99.90;;;;;;5031975;28;20498;-68
2021/09/11 10:46:03;;;;;;;11.80;10.80;;;22.90;99.90;;;;;;5032018;28;20494;-68
2021/09/11 10:48:39;;;;;;;9.00;8.30;;;22.70;99.90;;;;;;5031506;28;20453;-68
2021/09/11 10:51:17;;;;;;;10.37;9.47;;;22.90;99.90;;;;;;5032053;28;20430;-67
2021/09/11 10:54:03;;;;;;;9.73;8.93;;;23.30;99.90;;;;;;5014379;28;20433;-68
2021/09/11 10:56:32;;;;;;;8.33;7.50;;;23.50;99.90;;;;;;5032231;28;20420;-69
2021/09/11 10:59:18;;;;;;;8.77;8.03;;;23.30;99.90;;;;;;5031806;28;20457;-68
2021/09/11 11:02:24;;;;;;;9.00;8.20;;;23.40;99.90;;;;;;5032108;28;20415;-70
2021/09/11 11:04:52;;;;;;;7.63;6.83;;;23.40;99.90;;;;;;5023883;28;20453;-68
2021/09/11 11:07:25;;;;;;;9.60;8.70;;;23.40;99.90;;;;;;5031781;28;20457;-68
2021/09/11 11:10:03;;;;;;;9.00;8.20;;;23.80;99.90;;;;;;5032154;28;20409;-69
2021/09/11 11:12:49;;;;;;;9.13;8.33;;;23.70;99.90;;;;;;5031577;28;20414;-68
2021/09/11 11:15:21;;;;;;;8.63;7.77;;;23.90;99.90;;;;;;5031422;28;20418;-68
2021/09/11 11:17:48;;;;;;;6.77;6.27;;;23.30;99.90;;;;;;5031039;28;20417;-68
2021/09/11 11:20:20;;;;;;;7.83;6.70;;;23.30;99.90;;;;;;5031245;28;20447;-68
2021/09/11 11:22:45;;;;;;;6.60;6.00;;;23.70;99.90;;;;;;5031062;28;20774;-67
2021/09/11 11:25:16;;;;;;;6.03;5.63;;;24.00;99.90;;;;;;5031303;28;20410;-69
2021/09/11 11:27:42;;;;;;;5.97;5.47;;;24.00;99.90;;;;;;5030998;28;20198;-68
2021/09/11 11:30:11;;;;;;;5.60;5.10;;;24.10;99.90;;;;;;5031086;28;20887;-68
2021/09/11 11:32:37;;;;;;;5.50;5.10;;;24.50;99.90;;;;;;5031331;28;20165;-68
2021/09/11 11:35:05;;;;;;;5.77;5.27;;;24.40;99.90;;;;;;5031099;28;20525;-67
2021/09/11 11:37:41;;;;;;;6.30;5.80;;;24.20;99.90;;;;;;5031078;28;20443;-68
2021/09/11 11:40:12;;;;;;;5.30;4.90;;;23.70;99.90;;;;;;5031236;28;20405;-68
2021/09/11 11:42:41;;;;;;;5.43;5.03;;;23.70;99.90;;;;;;5030912;28;20411;-68
2021/09/11 11:45:09;;;;;;;4.80;4.40;;;24.00;99.90;;;;;;5031305;28;20411;-68
2021/09/11 11:48:04;;;;;;;5.60;5.10;;;24.30;99.90;;;;;;5031110;28;20987;-68
2021/09/11 11:50:35;;;;;;;6.07;5.40;;;24.20;99.90;;;;;;5031407;28;20928;-68
2021/09/11 11:53:19;;;;;;;5.43;5.03;;;24.20;99.90;;;;;;5031410;28;20804;-68
2021/09/11 11:55:48;;;;;;;5.30;4.90;;;23.90;99.90;;;;;;5031976;28;20427;-68
2021/09/11 11:58:16;;;;;;;5.27;4.87;;;24.00;99.90;;;;;;5031516;28;20437;-67
2021/09/11 12:00:52;;;;;;;6.47;5.20;;;24.10;99.90;;;;;;5031467;28;20826;-68
2021/09/11 12:03:44;;;;;;;4.90;4.50;;;23.70;99.90;;;;;;5014353;28;20425;-69
2021/09/11 12:06:15;;;;;;;5.73;4.57;;;23.60;99.90;;;;;;5031695;28;20413;-70
2021/09/11 12:08:40;;;;;;;5.53;5.03;;;23.70;99.90;;;;;;5031145;28;20511;-70
2021/09/11 12:11:21;;;;;;;5.20;4.80;;;23.60;99.90;;;;;;5031367;28;20413;-70
2021/09/11 12:13:49;;;;;;;3.93;3.63;;;23.90;99.90;;;;;;5031296;28;20195;-70
2021/09/11 12:16:17;;;;;;;5.00;4.10;;;24.30;99.90;;;;;;5031110;28;20413;-70
2021/09/11 12:18:42;;;;;;;3.53;3.23;;;24.10;99.90;;;;;;5030925;28;20541;-70
2021/09/11 12:21:13;;;;;;;4.30;4.00;;;24.20;99.90;;;;;;5031484;28;20905;-70
2021/09/11 12:23:49;;;;;;;4.00;3.70;;;24.00;99.90;;;;;;5033225;28;20191;-70
2021/09/11 12:26:17;;;;;;;4.23;3.77;;;24.40;99.90;;;;;;5018784;28;20444;-69
2021/09/11 12:28:51;;;;;;;4.10;3.80;;;24.90;99.90;;;;;;5034549;28;20932;-69
2021/09/11 12:31:23;;;;;;;4.07;3.60;;;25.40;99.90;;;;;;5035139;28;20436;-71
2021/09/11 12:33:53;;;;;;;4.13;3.73;;;25.40;99.90;;;;;;5034473;28;20437;-70
2021/09/11 12:36:38;;;;;;;4.53;4.10;;;25.20;99.90;;;;;;5035036;28;20413;-70